Time;durP1;ratioP1;P1;durP2;ratioP2;P2;SDS_P1;SDS_P2;PMS_P1;PMS_P2;Temp;Humidity;BMP_temperature;BMP_pressure;BME280_temperature;BME280_humidity;BME280_pressure;Samples;Min_cycle;Max_cycle;Signal;HPM_P1;HPM_P2
2022/01/21 00:01:20;;;;;;;25.02;8.82;;;;;;;-0.82;100.00;102312.72;4986095;28;20080;-63
2022/01/21 00:03:46;;;;;;;17.67;8.60;;;;;;;-0.96;100.00;102301.16;4988434;28;20030;-63
2022/01/21 00:06:12;;;;;;;12.95;7.70;;;;;;;-1.32;100.00;102265.78;4986632;28;20052;-63
2022/01/21 00:08:39;;;;;;;21.52;8.32;;;;;;;-1.09;100.00;102324.06;4988163;28;20030;-62
2022/01/21 00:11:05;;;;;;;33.33;8.25;;;;;;;-1.16;100.00;102314.38;4991157;28;20481;-63
2022/01/21 00:13:34;;;;;;;21.77;9.05;;;;;;;-1.45;100.00;102242.22;4995017;28;20080;-63
2022/01/21 00:16:09;;;;;;;17.75;8.90;;;;;;;-1.18;100.00;102269.63;4992060;28;20034;-63
2022/01/21 00:18:35;;;;;;;;;;;;;;;-0.96;100.00;102312.34;4992672;28;20034;-63
2022/01/21 00:31:58;;;;;;;16.90;9.35;;;;;;;-1.05;100.00;102269.13;4988191;28;20045;-62
2022/01/21 00:34:23;;;;;;;17.98;8.82;;;;;;;-0.73;100.00;102323.28;4994119;28;20072;-62
2022/01/21 00:36:49;;;;;;;18.38;8.65;;;;;;;-0.74;100.00;102322.41;4992741;28;20030;-62
2022/01/21 00:39:14;;;;;;;21.48;8.38;;;;;;;-0.76;100.00;102323.22;4994041;28;20547;-62
2022/01/21 00:41:52;;;;;;;18.27;8.90;;;;;;;-0.76;100.00;102334.41;4995681;28;20120;-63
2022/01/21 00:44:17;;;;;;;20.88;8.73;;;;;;;-0.75;100.00;102324.97;4996231;28;20038;-63
2022/01/21 00:46:43;;;;;;;26.50;8.82;;;;;;;-0.70;100.00;102329.41;4995602;28;20831;-62
2022/01/21 00:49:09;;;;;;;31.10;9.05;;;;;;;-0.64;100.00;102323.53;4993855;28;20073;-63
2022/01/21 00:51:34;;;;;;;21.88;8.85;;;;;;;-1.19;100.00;102239.53;4993703;28;20046;-63
2022/01/21 00:53:59;;;;;;;20.05;9.07;;;;;;;-0.73;100.00;102323.28;4995546;28;20040;-63
2022/01/21 00:56:25;;;;;;;22.10;8.70;;;;;;;-0.85;100.00;102310.06;5000309;28;20033;-63
2022/01/21 00:58:50;;;;;;;23.75;8.40;;;;;;;-0.84;100.00;102324.69;5005992;28;20057;-62
2022/01/21 01:01:16;;;;;;;21.80;8.02;;;;;;;-0.96;100.00;102299.47;4997901;28;20033;-63
2022/01/21 01:03:41;;;;;;;20.45;8.45;;;;;;;-0.92;100.00;102314.19;4987649;28;20890;-63
2022/01/21 01:06:07;;;;;;;20.52;8.68;;;;;;;-0.89;100.00;102327.19;4987099;28;20038;-63
2022/01/21 01:08:32;;;;;;;21.08;8.00;;;;;;;-0.90;100.00;102329.69;4992126;28;20132;-63
2022/01/21 01:21:36;;;;;;;22.98;9.10;;;;;;;-0.97;100.00;102318.34;4992679;28;20095;-63
2022/01/21 01:29:15;;;;;;;19.25;8.68;;;;;;;-1.15;100.00;102302.38;4992475;28;20084;-63
2022/01/21 01:31:41;;;;;;;27.05;7.75;;;;;;;-1.05;100.00;102319.84;4990781;28;20034;-63
2022/01/21 01:34:06;;;;;;;17.95;8.02;;;;;;;-1.05;100.00;102315.53;4992573;28;20041;-63
2022/01/21 01:36:32;;;;;;;18.08;8.10;;;;;;;-1.11;100.00;102317.97;4990612;28;20126;-63
2022/01/21 01:41:25;;;;;;;28.92;9.60;;;;;;;-1.09;100.00;102313.72;4992119;28;20046;-63
2022/01/21 01:49:35;;;;;;;22.00;8.63;;;;;;;-1.22;100.00;102298.75;4991617;28;20955;-67
2022/01/21 01:52:03;;;;;;;31.45;7.85;;;;;;;-1.20;100.00;102304.81;4989780;28;20037;-63
2022/01/21 01:54:30;;;;;;;20.17;7.75;;;;;;;-1.32;100.00;102280.41;4992488;28;20036;-63
2022/01/21 01:56:57;;;;;;;21.75;8.43;;;;;;;-1.34;100.00;102289.78;4992366;28;20033;-63
2022/01/21 01:59:23;;;;;;;14.63;7.32;;;;;;;-1.34;100.00;102285.50;4993492;28;20040;-63
2022/01/21 02:04:24;;;;;;;19.45;8.35;;;;;;;-1.25;100.00;102315.84;1156587;26;20453;-63
2022/01/21 02:06:50;;;;;;;22.02;7.80;;;;;;;-1.30;100.00;102300.22;4986512;28;20030;-62
2022/01/21 02:09:16;;;;;;;18.30;7.43;;;;;;;-1.22;100.00;102311.66;4994544;28;20049;-62
2022/01/21 02:11:41;;;;;;;24.80;8.10;;;;;;;-1.19;100.00;102319.47;4977076;28;20034;-62
2022/01/21 02:14:10;;;;;;;25.02;8.60;;;;;;;-1.19;100.00;102310.84;4974573;28;20453;-62
2022/01/21 02:22:25;;;;;;;15.40;7.60;;;;;;;-1.10;100.00;102326.56;4975057;28;20049;-63
2022/01/21 02:24:58;;;;;;;25.60;7.78;;;;;;;-1.15;100.00;102323.84;4975013;28;20035;-63
2022/01/21 02:27:24;;;;;;;20.92;7.38;;;;;;;-1.18;100.00;102318.59;4974760;28;20042;-62
2022/01/21 02:29:53;;;;;;;19.00;7.28;;;;;;;-1.31;100.00;102301.03;4973834;28;20030;-62
2022/01/21 02:32:20;;;;;;;15.77;8.55;;;;;;;-1.20;100.00;102322.88;4972696;28;20035;-63
2022/01/21 02:34:46;;;;;;;25.17;7.88;;;;;;;-1.50;100.00;102273.00;4974504;28;20046;-63
2022/01/21 02:37:13;;;;;;;23.38;7.28;;;;;;;-1.26;100.00;102320.13;4974612;28;20054;-63
2022/01/21 02:39:38;;;;;;;16.25;6.97;;;;;;;-1.29;100.00;102314.88;4975024;28;20465;-63
2022/01/21 02:42:04;;;;;;;22.25;6.88;;;;;;;-1.32;100.00;102330.22;4974418;28;20031;-62
2022/01/21 02:44:29;;;;;;;16.75;6.93;;;;;;;-1.32;100.00;102324.22;4974382;28;20034;-63
2022/01/21 02:46:58;;;;;;;20.92;7.35;;;;;;;-1.35;100.00;102314.66;4974683;28;20049;-63
2022/01/21 02:49:24;;;;;;;23.52;7.20;;;;;;;-1.30;100.00;102314.81;4966118;28;20022;-63
2022/01/21 02:51:54;;;;;;;20.25;7.75;;;;;;;-1.35;100.00;102326.72;4973284;28;20105;-62
2022/01/21 02:54:20;;;;;;;29.52;8.32;;;;;;;-1.38;100.00;102329.19;4971588;28;20031;-63
2022/01/21 02:56:45;;;;;;;21.50;7.40;;;;;;;-1.41;100.00;102323.94;4993590;28;20046;-63
2022/01/21 02:59:11;;;;;;;25.63;7.18;;;;;;;-1.41;100.00;102329.97;4993565;28;20030;-63
2022/01/21 03:01:40;;;;;;;22.63;7.78;;;;;;;-1.42;100.00;102330.78;4993688;28;20061;-62
2022/01/21 03:04:07;;;;;;;22.60;8.40;;;;;;;-1.45;100.00;102332.44;4993258;28;20503;-62
2022/01/21 03:06:35;;;;;;;13.43;6.68;;;;;;;-1.49;100.00;102328.88;4993727;28;20388;-62
2022/01/21 03:09:01;;;;;;;27.77;7.78;;;;;;;-1.49;100.00;102339.19;4993736;28;20080;-62
2022/01/21 03:11:27;;;;;;;26.58;8.98;;;;;;;-1.49;100.00;102341.78;4992321;28;20034;-62
2022/01/21 03:13:53;;;;;;;24.58;8.52;;;;;;;-1.49;100.00;102340.91;4992992;28;20037;-62
2022/01/21 03:16:19;;;;;;;20.88;6.72;;;;;;;-1.49;100.00;102335.75;4993481;28;20026;-62
2022/01/21 03:18:44;;;;;;;26.38;8.88;;;;;;;-1.58;100.00;102315.69;4993249;28;20033;-62
2022/01/21 03:21:15;;;;;;;19.05;7.40;;;;;;;-1.50;100.00;102340.00;4992877;28;20108;-62
2022/01/21 03:23:43;;;;;;;24.83;7.75;;;;;;;-1.53;100.00;102334.78;4992661;28;20105;-61
2022/01/21 03:26:08;;;;;;;23.65;7.57;;;;;;;-1.48;100.00;102333.19;4993334;28;20018;-61
2022/01/21 03:28:33;;;;;;;25.48;9.27;;;;;;;-1.51;100.00;102333.09;4993343;28;20113;-61
2022/01/21 03:30:59;;;;;;;23.52;8.35;;;;;;;-1.56;100.00;102330.41;4992941;28;20102;-61
2022/01/21 03:33:25;;;;;;;15.52;7.72;;;;;;;-1.56;100.00;102332.09;4992661;28;20022;-61
2022/01/21 03:35:53;;;;;;;17.13;7.35;;;;;;;-1.57;100.00;102335.50;4993126;28;20088;-61
2022/01/21 03:38:19;;;;;;;11.68;7.40;;;;;;;-1.54;100.00;102340.75;4993256;28;20388;-61
2022/01/21 03:40:45;;;;;;;16.27;8.07;;;;;;;-1.58;100.00;102346.63;4993127;28;20404;-61
2022/01/21 03:43:12;;;;;;;18.27;7.78;;;;;;;-1.67;100.00;102330.91;5008098;28;20040;-61
2022/01/21 03:45:38;;;;;;;21.48;8.63;;;;;;;-1.91;100.00;102299.22;4993545;28;20038;-62
2022/01/21 03:48:03;;;;;;;12.95;7.43;;;;;;;-1.60;100.00;102358.59;4996531;28;20041;-61
2022/01/21 03:50:32;;;;;;;24.33;9.43;;;;;;;-1.60;100.00;102356.91;4996045;28;20479;-61
2022/01/21 03:53:02;;;;;;;20.20;8.48;;;;;;;-1.58;100.00;102337.19;4985132;28;20034;-62
2022/01/21 03:55:28;;;;;;;14.80;7.80;;;;;;;-1.48;100.00;102352.94;4996894;28;20430;-62
2022/01/21 03:57:53;;;;;;;26.33;8.38;;;;;;;-1.49;100.00;102352.09;4997368;28;20046;-61
2022/01/21 04:00:22;;;;;;;20.67;8.05;;;;;;;-1.49;100.00;102348.63;4996857;28;20501;-62
2022/01/21 04:02:48;;;;;;;22.00;8.32;;;;;;;-1.53;100.00;102345.06;4996815;28;20038;-62
2022/01/21 04:05:13;;;;;;;22.02;8.85;;;;;;;-1.51;100.00;102338.25;4996938;28;20038;-63
2022/01/21 04:07:39;;;;;;;23.35;9.18;;;;;;;-1.51;100.00;102330.53;4996879;28;20034;-62
2022/01/21 04:10:05;;;;;;;26.40;8.48;;;;;;;-1.45;100.00;102333.28;4996658;28;20114;-62
2022/01/21 04:12:31;;;;;;;20.25;8.98;;;;;;;-1.42;100.00;102343.66;4996434;28;20026;-62
2022/01/21 04:14:59;;;;;;;19.45;9.35;;;;;;;-1.40;100.00;102336.88;4992509;28;20026;-62
2022/01/21 04:17:28;;;;;;;25.05;9.48;;;;;;;-1.42;100.00;102343.66;4996821;28;20109;-62
2022/01/21 04:19:54;;;;;;;23.35;9.48;;;;;;;-1.41;100.00;102354.88;4995410;28;20026;-62
2022/01/21 04:22:20;;;;;;;24.55;9.85;;;;;;;-1.38;100.00;102354.94;4996158;28;20033;-62
2022/01/21 04:24:47;;;;;;;23.27;10.02;;;;;;;-1.37;100.00;102355.00;4996523;28;20030;-62
2022/01/21 04:27:13;;;;;;;20.80;8.70;;;;;;;-1.62;100.00;102314.72;4996097;28;20033;-62
2022/01/21 04:29:38;;;;;;;25.42;8.90;;;;;;;-1.59;100.00;102324.28;4995591;28;20034;-62
2022/01/21 04:32:04;;;;;;;26.58;10.02;;;;;;;-1.48;100.00;102338.34;4995936;28;20475;-61
2022/01/21 04:34:29;;;;;;;21.13;9.70;;;;;;;-1.50;100.00;102337.44;4995521;28;20093;-61
2022/01/21 04:36:55;;;;;;;27.52;10.57;;;;;;;-1.40;100.00;102334.31;4995359;28;20022;-62
2022/01/21 04:39:27;;;;;;;32.58;9.98;;;;;;;-1.33;100.00;102330.19;4996122;28;20415;-62
2022/01/21 04:47:30;;;;;;;15.25;9.02;;;;;;;-1.31;100.00;102337.13;4970289;28;20096;-62
2022/01/21 04:49:55;;;;;;;22.42;11.20;;;;;;;-1.29;100.00;102335.50;4995494;28;20026;-62
2022/01/21 04:52:22;;;;;;;21.83;11.13;;;;;;;-1.30;100.00;102338.91;4995278;28;20030;-63
2022/01/21 04:54:48;;;;;;;20.38;9.35;;;;;;;-1.32;100.00;102327.66;4995843;28;20046;-62
2022/01/21 04:57:13;;;;;;;19.80;8.82;;;;;;;-1.56;100.00;102299.47;4995224;28;20101;-62
2022/01/21 04:59:39;;;;;;;25.38;9.55;;;;;;;-1.35;100.00;102334.44;4994298;28;20109;-62
2022/01/21 05:02:05;;;;;;;28.30;9.02;;;;;;;-1.37;100.00;102334.38;4995346;28;20034;-62
2022/01/21 05:04:31;;;;;;;22.00;9.52;;;;;;;-1.39;100.00;102338.63;4993406;28;20040;-62
2022/01/21 05:06:56;;;;;;;23.52;9.20;;;;;;;-1.38;100.00;102352.38;4972897;28;20034;-62
2022/01/21 05:09:29;;;;;;;31.10;9.38;;;;;;;-1.44;100.00;102347.91;4994022;28;20400;-61
2022/01/21 05:11:55;;;;;;;23.55;10.07;;;;;;;-1.46;100.00;102340.97;4995560;28;20543;-62
2022/01/21 05:14:24;;;;;;;20.85;8.60;;;;;;;-1.49;100.00;102339.19;4995503;28;20022;-63
2022/01/21 05:16:52;;;;;;;30.30;9.65;;;;;;;-1.49;100.00;102343.47;4995597;28;20026;-63
2022/01/21 05:19:19;;;;;;;24.75;10.43;;;;;;;-2.00;100.00;102250.03;4995682;28;20041;-63
2022/01/21 05:21:46;;;;;;;16.60;9.95;;;;;;;-1.57;100.00;102325.19;4995457;28;20473;-62
2022/01/21 05:24:12;;;;;;;18.63;9.48;;;;;;;-1.49;100.00;102346.94;4976178;28;20853;-62
2022/01/21 05:26:40;;;;;;;22.10;10.30;;;;;;;-1.48;100.00;102343.50;4987563;28;20033;-62
2022/01/21 05:29:11;;;;;;;19.50;9.40;;;;;;;-1.46;100.00;102346.13;4994904;28;20472;-62
2022/01/21 05:31:37;;;;;;;29.77;10.43;;;;;;;-1.43;100.00;102343.66;4992230;28;20034;-62
2022/01/21 05:34:02;;;;;;;19.40;9.05;;;;;;;-1.39;100.00;102343.78;4994590;28;20023;-62
2022/01/21 05:36:30;;;;;;;30.20;10.32;;;;;;;-1.43;100.00;102339.38;4994967;28;20114;-62
2022/01/21 05:38:56;;;;;;;17.38;9.30;;;;;;;-1.64;100.00;102311.25;4995072;28;20034;-62
2022/01/21 05:41:23;;;;;;;17.30;9.63;;;;;;;-1.50;100.00;102349.44;4995379;28;20506;-61
2022/01/21 05:43:49;;;;;;;24.67;9.68;;;;;;;-1.59;100.00;102348.31;4991377;28;20384;-62
2022/01/21 05:48:58;;;;;;;20.75;9.77;;;;;;;-1.57;100.00;102346.69;4993581;28;20068;-62
2022/01/21 05:51:24;;;;;;;26.02;11.35;;;;;;;-1.57;100.00;102346.69;4994270;28;20113;-61
2022/01/21 05:53:49;;;;;;;27.88;10.80;;;;;;;-1.58;100.00;102354.34;4994342;28;20085;-61
2022/01/21 05:56:15;;;;;;;20.92;10.57;;;;;;;-1.59;100.00;102350.91;4972241;28;20035;-61
2022/01/21 05:58:40;;;;;;;13.25;9.18;;;;;;;-1.57;100.00;102361.28;4989116;28;20069;-61
2022/01/21 06:01:06;;;;;;;25.63;9.40;;;;;;;-1.59;100.00;102347.47;4993921;28;20040;-62
2022/01/21 06:03:32;;;;;;;22.52;10.68;;;;;;;-1.53;100.00;102359.66;4994229;28;20034;-63
2022/01/21 06:05:57;;;;;;;22.08;10.90;;;;;;;-1.50;100.00;102364.91;4994665;28;20472;-61
2022/01/21 06:08:23;;;;;;;22.35;9.50;;;;;;;-1.49;100.00;102357.25;4993761;28;20029;-62
2022/01/21 06:10:48;;;;;;;24.70;10.38;;;;;;;-1.43;100.00;102352.25;4994826;28;20090;-62
2022/01/21 06:13:17;;;;;;;19.42;10.70;;;;;;;-1.41;100.00;102341.97;4994569;28;20042;-61
2022/01/21 06:15:44;;;;;;;20.42;10.57;;;;;;;-1.45;100.00;102353.91;4994036;28;20092;-62
2022/01/21 06:18:09;;;;;;;21.45;11.45;;;;;;;-1.53;100.00;102339.94;4994570;28;20069;-62
2022/01/21 06:20:35;;;;;;;20.58;10.88;;;;;;;-1.44;100.00;102340.19;4993826;28;20061;-61
2022/01/21 06:23:00;;;;;;;29.65;11.43;;;;;;;-1.44;100.00;102350.50;4994069;28;20080;-61
2022/01/21 06:25:26;;;;;;;21.95;10.63;;;;;;;-1.38;100.00;102355.84;4994331;28;20085;-61
2022/01/21 06:27:51;;;;;;;27.38;11.40;;;;;;;-1.38;100.00;102354.94;4991178;28;20507;-61
2022/01/21 06:30:16;;;;;;;24.33;11.18;;;;;;;-1.41;100.00;102360.91;4988904;28;20491;-61
2022/01/21 06:32:42;;;;;;;33.97;12.77;;;;;;;-1.41;100.00;102368.63;4966853;28;20034;-61
2022/01/21 06:35:11;;;;;;;27.25;11.93;;;;;;;-1.30;100.00;102374.13;4993595;28;20526;-61
2022/01/21 06:37:37;;;;;;;22.70;12.07;;;;;;;-1.29;100.00;102376.75;4993862;28;20030;-61
2022/01/21 06:40:04;;;;;;;36.38;12.25;;;;;;;-1.37;100.00;102360.16;4992628;28;20036;-61
2022/01/21 06:42:30;;;;;;;20.92;13.10;;;;;;;-1.24;100.00;102384.59;4973152;28;20450;-62
2022/01/21 06:44:56;;;;;;;19.63;12.20;;;;;;;-1.30;100.00;102380.16;4974345;28;20030;-61
2022/01/21 06:47:22;;;;;;;25.48;12.32;;;;;;;-1.31;100.00;102390.41;4974175;28;20373;-62
2022/01/21 06:49:47;;;;;;;27.38;11.88;;;;;;;-1.36;100.00;102382.56;4974238;28;20387;-63
2022/01/21 06:52:13;;;;;;;26.20;11.38;;;;;;;-1.29;100.00;102389.66;4977592;28;20038;-61
2022/01/21 06:54:38;;;;;;;31.63;12.95;;;;;;;-1.17;100.00;102390.00;4993710;28;20370;-61
2022/01/21 06:57:04;;;;;;;27.73;12.68;;;;;;;-1.62;100.00;102317.31;4993660;28;20041;-61
2022/01/21 06:59:29;;;;;;;17.08;12.60;;;;;;;-1.22;100.00;102398.44;4993438;28;20034;-61
2022/01/21 07:01:55;;;;;;;22.85;13.55;;;;;;;-1.25;100.00;102394.03;4993246;28;20034;-62
2022/01/21 07:04:20;;;;;;;16.17;11.63;;;;;;;-1.45;100.00;102368.50;4993207;28;20026;-61
2022/01/21 07:06:45;;;;;;;18.15;12.02;;;;;;;-1.30;100.00;102407.63;4993617;28;20030;-62
2022/01/21 07:09:12;;;;;;;23.23;12.73;;;;;;;-1.30;100.00;102407.63;4990688;28;20487;-61
2022/01/21 07:11:37;;;;;;;22.33;12.10;;;;;;;-1.29;100.00;102410.28;4993255;28;20068;-62
2022/01/21 07:14:03;;;;;;;28.88;12.30;;;;;;;-1.31;100.00;102419.63;4993286;28;20030;-62
2022/01/21 07:16:28;;;;;;;22.67;11.23;;;;;;;-1.36;100.00;102416.06;4991947;28;20037;-61
2022/01/21 07:18:53;;;;;;;31.17;13.75;;;;;;;-1.65;100.00;102380.75;4992927;28;20058;-61
2022/01/21 07:21:19;;;;;;;29.13;16.60;;;;;;;-1.38;100.00;102420.28;4991510;28;20076;-62
2022/01/21 07:23:44;;;;;;;18.08;12.43;;;;;;;-1.36;100.00;102418.63;4993053;28;20026;-62
2022/01/21 07:26:12;;;;;;;22.50;12.43;;;;;;;-1.33;100.00;102425.59;4993241;28;20438;-62
2022/01/21 07:28:37;;;;;;;18.85;12.50;;;;;;;-1.34;100.00;102414.41;4993286;28;20038;-62
2022/01/21 07:31:03;;;;;;;19.58;12.60;;;;;;;-1.35;100.00;102422.94;4992539;28;20117;-62
2022/01/21 07:33:28;;;;;;;25.60;12.70;;;;;;;-1.38;100.00;102417.69;4993019;28;20037;-61
2022/01/21 07:35:54;;;;;;;22.85;11.75;;;;;;;-1.42;100.00;102418.44;4992130;28;20384;-62
2022/01/21 07:38:19;;;;;;;22.40;12.50;;;;;;;-1.45;100.00;102420.91;4944317;28;20042;-62
2022/01/21 07:40:45;;;;;;;24.67;12.98;;;;;;;-1.43;100.00;102426.13;4957733;28;20035;-62
2022/01/21 07:43:10;;;;;;;23.50;13.13;;;;;;;-1.39;100.00;102428.88;4973488;28;20460;-62
2022/01/21 07:45:36;;;;;;;25.00;13.10;;;;;;;-1.40;100.00;102419.38;4973307;28;20034;-62
2022/01/21 07:48:01;;;;;;;25.65;13.30;;;;;;;-1.41;100.00;102427.91;4972976;28;20038;-62
2022/01/21 07:50:27;;;;;;;18.02;11.73;;;;;;;-1.45;100.00;102443.25;4973257;28;20038;-62
2022/01/21 07:52:52;;;;;;;26.30;13.25;;;;;;;-1.48;100.00;102446.59;4973308;28;20102;-63
2022/01/21 07:55:17;;;;;;;24.20;13.95;;;;;;;-1.54;100.00;102430.94;4971410;28;20031;-63
2022/01/21 07:57:43;;;;;;;35.20;14.65;;;;;;;-1.33;100.00;102456.53;4966381;28;20039;-63
2022/01/21 08:00:11;;;;;;;20.00;13.70;;;;;;;-1.22;100.00;102450.88;4971442;28;20555;-63
2022/01/21 08:02:36;;;;;;;33.10;16.13;;;;;;;-1.02;100.00;102458.34;4971354;28;20118;-62
2022/01/21 08:05:04;;;;;;;31.02;16.52;;;;;;;-0.87;100.00;102453.63;4970468;28;20122;-62
2022/01/21 08:07:30;;;;;;;22.20;15.38;;;;;;;-0.75;100.00;102447.13;4967875;28;20082;-62
2022/01/21 08:09:55;;;;;;;27.90;16.60;;;;;;;-0.63;100.00;102449.16;4963270;28;20035;-62
2022/01/21 08:12:20;;;;;;;30.85;17.27;;;;;;;-0.56;100.00;102448.50;4971184;28;20049;-62
2022/01/21 08:14:46;;;;;;;24.48;16.55;;;;;;;-0.49;100.00;102446.97;4971123;28;20115;-62
2022/01/21 08:17:12;;;;;;;21.52;15.38;;;;;;;-0.45;100.00;102453.97;4965003;28;20078;-62
2022/01/21 08:19:37;;;;;;;29.73;16.67;;;;;;;-0.39;100.00;102443.81;4965167;28;20039;-62
2022/01/21 08:22:03;;;;;;;28.02;16.27;;;;;;;-0.37;100.00;102437.84;4967888;28;20039;-62
2022/01/21 08:24:28;;;;;;;25.88;15.57;;;;;;;-0.34;100.00;102435.38;4963016;28;20148;-62
2022/01/21 08:26:54;;;;;;;27.75;14.63;;;;;;;-0.29;100.00;102435.47;4971205;28;20055;-62
2022/01/21 08:29:19;;;;;;;27.85;15.65;;;;;;;-0.25;100.00;102443.34;4971372;28;20077;-62
2022/01/21 08:31:45;;;;;;;23.25;15.23;;;;;;;-0.13;100.00;102433.34;4967251;28;20085;-63
2022/01/21 08:34:12;;;;;;;26.45;15.63;;;;;;;-0.03;100.00;102425.00;4973491;28;20031;-63
2022/01/21 08:36:38;;;;;;;25.58;14.25;;;;;;;0.08;100.00;102437.31;4963197;28;20035;-63
2022/01/21 08:39:04;;;;;;;24.52;15.98;;;;;;;0.19;100.00;102430.69;4973189;28;20485;-62
2022/01/21 08:41:30;;;;;;;24.35;13.98;;;;;;;0.26;100.00;102420.56;4974357;28;20026;-62
2022/01/21 08:43:55;;;;;;;26.80;15.05;;;;;;;0.30;100.00;102430.16;4974085;28;20104;-63
2022/01/21 08:46:22;;;;;;;20.05;14.68;;;;;;;0.32;100.00;102435.34;4974850;28;20030;-63
2022/01/21 08:48:47;;;;;;;26.88;14.90;;;;;;;0.37;100.00;102434.59;4974995;28;20489;-62
2022/01/21 08:51:18;;;;;;;26.88;14.85;;;;;;;0.00;100.00;102357.03;4964585;28;20093;-63
2022/01/21 08:53:45;;;;;;;25.02;15.00;;;;;;;0.44;100.00;102427.88;4960523;28;20035;-62
2022/01/21 08:56:12;;;;;;;18.35;13.35;;;;;;;0.55;100.00;102431.56;4971430;28;20425;-62
2022/01/21 08:58:38;;;;;;;18.90;13.75;;;;;;;0.43;100.00;102400.28;4987670;28;20117;-62
2022/01/21 09:01:04;;;;;;;21.63;13.95;;;;;;;0.47;100.00;102404.69;4988248;28;20121;-62
2022/01/21 09:03:30;;;;;;;23.52;13.35;;;;;;;0.59;100.00;102436.00;4989018;28;20042;-63
2022/01/21 09:05:56;;;;;;;17.95;13.13;;;;;;;0.56;100.00;102437.63;4987814;28;20034;-63
2022/01/21 09:08:24;;;;;;;23.73;13.23;;;;;;;0.55;100.00;102441.03;4987446;28;20034;-63
2022/01/21 09:10:53;;;;;;;28.13;14.40;;;;;;;0.55;100.00;102436.75;4987689;28;20538;-63
2022/01/21 09:13:23;;;;;;;21.95;13.18;;;;;;;0.23;100.00;102396.34;4980977;28;20041;-63
2022/01/21 09:15:49;;;;;;;19.48;14.90;;;;;;;0.37;100.00;102426.84;4985761;28;20042;-63
2022/01/21 09:18:18;;;;;;;22.85;14.48;;;;;;;0.36;100.00;102444.91;4985832;28;20046;-62
2022/01/21 09:20:45;;;;;;;22.10;14.75;;;;;;;0.15;100.00;102423.72;4988139;28;20563;-62
2022/01/21 09:23:10;;;;;;;21.05;14.55;;;;;;;0.36;100.00;102447.50;4986706;28;20500;-63
2022/01/21 09:25:36;;;;;;;25.40;15.00;;;;;;;0.38;100.00;102459.63;4985128;28;20038;-63
2022/01/21 09:28:02;;;;;;;26.40;16.45;;;;;;;0.49;100.00;102452.13;4988402;28;20052;-62
2022/01/21 09:30:28;;;;;;;23.75;14.80;;;;;;;0.66;100.00;102457.69;4986609;28;20035;-63
2022/01/21 09:32:54;;;;;;;43.70;16.25;;;;;;;0.77;100.00;102444.19;4985241;28;20165;-62
2022/01/21 09:35:19;;;;;;;30.10;16.27;;;;;;;0.80;100.00;102458.88;5002085;28;20673;-62
2022/01/21 09:37:45;;;;;;;24.27;15.43;;;;;;;0.81;100.00;102443.38;4988048;28;20041;-63
2022/01/21 09:40:11;;;;;;;28.67;16.27;;;;;;;0.75;100.00;102425.16;4986874;28;20045;-63
2022/01/21 09:42:37;;;;;;;26.88;14.25;;;;;;;0.79;100.00;102436.44;4982786;28;20060;-63
2022/01/21 09:45:09;;;;;;;24.35;14.50;;;;;;;0.80;100.00;102439.06;4987805;28;20544;-63
2022/01/21 09:47:45;;;;;;;19.92;14.75;;;;;;;0.81;100.00;102440.81;4985903;28;20443;-63
2022/01/21 09:50:12;;;;;;;27.77;14.95;;;;;;;0.86;100.00;102434.03;4981549;28;20487;-63
2022/01/21 09:52:37;;;;;;;25.88;15.90;;;;;;;0.95;100.00;102439.41;4986440;28;20038;-63
2022/01/21 09:55:04;;;;;;;36.40;16.65;;;;;;;1.06;100.00;102436.16;4986202;28;20415;-63
2022/01/21 09:57:29;;;;;;;23.88;15.35;;;;;;;1.16;100.00;102435.53;4986959;28;20041;-63
2022/01/21 09:59:55;;;;;;;25.85;15.65;;;;;;;0.67;100.00;102332.72;4987884;28;20681;-63
2022/01/21 10:02:28;;;;;;;23.50;14.07;;;;;;;1.35;100.00;102440.25;4985676;28;20030;-63
2022/01/21 10:04:55;;;;;;;26.73;15.80;;;;;;;1.45;100.00;102442.19;4988719;28;20045;-63
2022/01/21 10:07:22;;;;;;;24.30;16.38;;;;;;;1.55;100.00;102454.47;4985032;28;20499;-63
2022/01/21 10:09:48;;;;;;;25.63;14.77;;;;;;;1.64;100.00;102459.81;4989368;28;20038;-63
2022/01/21 10:12:14;;;;;;;23.17;14.60;;;;;;;1.71;100.00;102477.22;4988676;28;20071;-63
2022/01/21 10:14:41;;;;;;;26.75;15.40;;;;;;;1.79;100.00;102479.97;4989304;28;20148;-63
2022/01/21 10:17:07;;;;;;;23.05;14.98;;;;;;;1.72;100.00;102458.25;4988883;28;20037;-63
2022/01/21 10:19:35;;;;;;;20.35;14.32;;;;;;;1.94;100.00;102477.66;4983767;28;20058;-63
2022/01/21 10:22:09;;;;;;;19.75;14.27;;;;;;;2.08;100.00;102483.09;4968601;28;20030;-63
2022/01/21 10:24:36;;;;;;;26.05;14.77;;;;;;;2.25;100.00;102473.91;4969716;28;20086;-63
2022/01/21 10:27:02;;;;;;;24.58;13.63;;;;;;;2.38;100.00;102483.63;4966113;28;20030;-63
2022/01/21 10:29:41;;;;;;;20.10;10.82;;;;;;;2.57;100.00;102485.66;4970630;28;20039;-63
2022/01/21 10:32:07;;;;;;;26.67;12.30;;;;;;;2.78;100.00;102482.53;4970874;28;20027;-64
2022/01/21 10:34:39;;;;;;;15.55;10.25;;;;;;;2.97;100.00;102477.63;4966005;28;20031;-63
2022/01/21 10:37:25;;;;;;;15.60;9.45;;;;;;;3.18;100.00;102487.44;4970740;28;20113;-63
2022/01/21 10:40:04;;;;;;;16.90;9.68;;;;;;;3.27;100.00;102497.13;4979830;28;20074;-63
2022/01/21 10:42:30;;;;;;;13.63;8.65;;;;;;;3.32;100.00;102495.44;4983897;28;20042;-64
2022/01/21 10:44:57;;;;;;;12.65;8.52;;;;;;;3.31;100.00;102496.31;4991557;28;20034;-63
2022/01/21 10:47:32;;;;;;;12.80;9.30;;;;;;;3.39;100.00;102494.66;4982062;28;20023;-63
2022/01/21 10:50:03;;;;;;;12.35;8.40;;;;;;;3.49;100.00;102493.94;4975512;28;20031;-63
2022/01/21 10:52:49;;;;;;;18.15;9.48;;;;;;;3.44;100.00;102464.44;4976687;28;20049;-63
2022/01/21 10:55:34;;;;;;;19.63;9.45;;;;;;;3.64;100.00;102490.66;4984138;28;20104;-63
2022/01/21 10:58:11;;;;;;;15.45;9.00;;;;;;;3.69;100.00;102487.25;4973954;28;20038;-64
2022/01/21 11:00:37;;;;;;;22.88;9.18;;;;;;;3.67;100.00;102488.97;4965781;28;20038;-63
2022/01/21 11:03:17;;;;;;;13.68;8.70;;;;;;;3.70;100.00;102482.91;4969454;28;20027;-63
2022/01/21 11:05:47;;;;;;;15.43;8.43;;;;;;;3.64;100.00;102475.94;4969825;28;20069;-63
2022/01/21 11:08:14;;;;;;;13.00;8.68;;;;;;;3.54;100.00;102482.75;4967953;28;20034;-63
2022/01/21 11:10:42;;;;;;;12.57;7.88;;;;;;;3.47;100.00;102477.47;4971118;28;20038;-63
2022/01/21 11:13:10;;;;;;;20.85;9.48;;;;;;;3.49;100.00;102473.13;4967032;28;20555;-63
2022/01/21 11:15:41;;;;;;;16.15;8.70;;;;;;;3.64;100.00;102475.06;4968255;28;20034;-63
2022/01/21 11:18:08;;;;;;;15.23;8.73;;;;;;;3.87;100.00;102477.06;4971206;28;20803;-63
2022/01/21 11:20:38;;;;;;;19.40;9.65;;;;;;;4.10;100.00;102469.47;4970728;28;20096;-63
2022/01/21 11:23:04;;;;;;;12.95;8.00;;;;;;;4.25;100.00;102471.38;4970585;28;20023;-63
2022/01/21 11:25:48;;;;;;;15.63;9.10;;;;;;;4.30;100.00;102467.06;4970526;28;20034;-63
2022/01/21 11:28:42;;;;;;;13.85;8.45;;;;;;;4.36;100.00;102472.34;4968680;28;20081;-63
2022/01/21 11:31:09;;;;;;;17.05;8.93;;;;;;;4.40;100.00;102454.13;4962716;28;20100;-63
2022/01/21 11:33:35;;;;;;;13.38;7.57;;;;;;;4.42;100.00;102452.44;4967603;28;20038;-63
2022/01/21 11:36:04;;;;;;;24.50;14.40;;;;;;;4.43;100.00;102445.47;4953693;28;20031;-63
2022/01/21 11:38:30;;;;;;;16.67;9.95;;;;;;;4.32;100.00;102444.53;4953358;28;20031;-64
2022/01/21 11:40:56;;;;;;;17.38;7.93;;;;;;;4.07;100.00;102444.31;4944702;28;20043;-64
2022/01/21 11:43:22;;;;;;;10.88;6.75;;;;;;;4.00;100.00;102432.09;4966788;28;20102;-64
2022/01/21 11:48:52;;;;;;;15.73;8.60;;;;;;;4.04;100.00;102412.22;4951173;28;20053;-63
2022/01/21 11:51:40;;;;;;;15.27;6.72;;;;;;;4.27;100.00;102410.66;4942364;28;20053;-64
2022/01/21 11:54:16;;;;;;;18.38;7.60;;;;;;;4.48;100.00;102409.97;4922944;28;20141;-64
2022/01/21 11:56:46;;;;;;;18.48;7.32;;;;;;;4.55;100.00;102401.34;4930642;28;20049;-64
2022/01/21 11:59:11;;;;;;;15.50;8.00;;;;;;;5.05;100.00;102391.19;4929904;28;20058;-64
2022/01/21 12:01:47;;;;;;;16.58;7.68;;;;;;;5.29;100.00;102364.38;4929815;28;20159;-64
2022/01/21 12:04:41;;;;;;;17.00;6.22;;;;;;;5.57;100.00;102392.25;4930086;28;20031;-64